Time;durP1;ratioP1;P1;durP2;ratioP2;P2;SDS_P1;SDS_P2;PMS_P1;PMS_P2;Temp;Humidity;BMP_temperature;BMP_pressure;BME280_temperature;BME280_humidity;BME280_pressure;Samples;Min_cycle;Max_cycle;Signal;HPM_P1;HPM_P2
2022/01/04 00:01:47;;;;;;;5.00;2.55;;;;;;;8.82;78.91;100154.59;5086886;28;20049;-69
2022/01/04 00:04:14;;;;;;;7.57;2.35;;;;;;;8.82;78.99;100151.97;5094315;28;20414;-70
2022/01/04 00:06:41;;;;;;;7.43;2.17;;;;;;;8.81;78.75;100145.00;5095329;28;20521;-69
2022/01/04 00:09:10;;;;;;;6.13;2.28;;;;;;;8.80;78.83;100142.44;5096164;28;20051;-68
2022/01/04 00:13:20;;;;;;;5.05;1.70;;;;;;;8.79;78.84;100136.28;5095839;28;20051;-71
2022/01/04 00:14:33;;;;;;;6.35;1.98;;;;;;;8.78;78.88;100129.31;5094933;28;21843;-67
2022/01/04 00:17:00;;;;;;;3.63;1.90;;;;;;;8.79;78.88;100128.41;5095457;28;20468;-66
2022/01/04 00:19:26;;;;;;;7.28;2.28;;;;;;;8.79;78.90;100117.91;5095500;28;20048;-70
2022/01/04 00:21:54;;;;;;;6.38;2.00;;;;;;;8.79;78.70;100112.63;5095691;28;20049;-70
2022/01/04 00:24:21;;;;;;;4.90;2.05;;;;;;;8.77;78.73;100108.34;5094696;28;20456;-70
2022/01/04 00:26:48;;;;;;;6.40;2.20;;;;;;;8.75;78.83;100115.44;5094989;28;20884;-70
2022/01/04 00:29:14;;;;;;;7.50;2.10;;;;;;;8.74;78.87;100105.81;5090025;28;20556;-69
2022/01/04 00:31:41;;;;;;;3.60;1.75;;;;;;;8.72;78.57;100099.75;5085939;28;20041;-70
2022/01/04 00:34:08;;;;;;;4.78;1.83;;;;;;;8.70;78.73;100092.78;5089810;28;20075;-69
2022/01/04 00:36:34;;;;;;;4.47;2.15;;;;;;;8.72;78.86;100089.25;5095265;28;20052;-69
2022/01/04 00:39:02;;;;;;;4.90;2.22;;;;;;;8.72;78.80;100086.63;5095002;28;20080;-69
2022/01/04 00:41:29;;;;;;;6.90;2.28;;;;;;;8.72;78.72;100078.72;5094826;28;20071;-69
2022/01/04 00:43:55;;;;;;;6.97;2.45;;;;;;;8.72;78.96;100065.59;5096000;28;20047;-69
2022/01/04 00:46:22;;;;;;;5.70;2.42;;;;;;;8.72;78.90;100060.34;5095867;28;20072;-69
2022/01/04 00:51:34;;;;;;;4.93;2.28;;;;;;;8.72;79.10;100052.44;5094801;28;20170;-69
2022/01/04 00:54:01;;;;;;;6.90;2.90;;;;;;;8.73;78.90;100051.53;5094714;28;20040;-70
2022/01/04 00:56:28;;;;;;;3.60;2.60;;;;;;;8.74;78.93;100045.38;5094881;28;20048;-69
2022/01/04 00:58:55;;;;;;;5.22;2.60;;;;;;;8.72;78.96;100037.56;5094074;28;20036;-69
2022/01/04 01:01:22;;;;;;;6.05;2.70;;;;;;;8.72;79.16;100039.31;5094134;28;20040;-69
2022/01/04 01:03:50;;;;;;;6.25;2.80;;;;;;;8.72;78.94;100034.06;5095028;28;20053;-70
2022/01/04 01:06:18;;;;;;;5.70;2.33;;;;;;;8.71;78.95;100033.22;5094974;28;20132;-71
2022/01/04 01:08:46;;;;;;;4.72;2.40;;;;;;;8.72;79.04;100031.44;5094999;28;20051;-71
2022/01/04 01:11:12;;;;;;;6.07;2.70;;;;;;;8.73;78.98;100022.63;5094963;28;20041;-70
2022/01/04 01:13:39;;;;;;;5.75;2.60;;;;;;;8.72;79.19;100010.41;5095087;28;20040;-71
2022/01/04 01:16:07;;;;;;;5.10;2.78;;;;;;;8.73;78.94;100012.13;5097690;28;20052;-69
2022/01/04 01:18:35;;;;;;;5.07;2.50;;;;;;;8.72;78.99;100011.28;5095280;28;20128;-70
2022/01/04 01:21:05;;;;;;;4.00;2.67;;;;;;;8.73;79.06;100012.13;5094241;28;20091;-68
2022/01/04 01:23:34;;;;;;;4.25;2.42;;;;;;;8.73;79.08;100020.00;5094887;28;20044;-70
2022/01/04 01:26:04;;;;;;;4.13;2.50;;;;;;;8.73;78.95;100006.88;5092710;28;20517;-70
2022/01/04 01:28:31;;;;;;;4.90;2.60;;;;;;;8.71;78.98;100009.56;5094457;28;20048;-69
2022/01/04 01:31:03;;;;;;;6.53;2.78;;;;;;;8.70;78.98;100007.84;5093370;28;20052;-70
2022/01/04 01:33:30;;;;;;;5.50;2.70;;;;;;;8.69;79.00;100008.75;5095036;28;20044;-69
2022/01/04 01:35:57;;;;;;;5.63;2.20;;;;;;;8.67;79.13;100005.31;5093986;28;20052;-68
2022/01/04 01:38:25;;;;;;;4.13;2.72;;;;;;;8.67;79.23;100000.06;5089966;28;20041;-68
2022/01/04 01:40:52;;;;;;;5.03;2.60;;;;;;;8.67;79.15;100000.94;5093890;28;20446;-69
2022/01/04 01:43:20;;;;;;;6.03;2.58;;;;;;;8.67;79.13;100006.19;5093894;28;20090;-67
2022/01/04 01:45:47;;;;;;;3.65;2.70;;;;;;;8.65;79.05;100002.75;5094129;28;20048;-68
2022/01/04 01:48:14;;;;;;;4.78;2.72;;;;;;;8.62;79.15;99999.38;5094180;28;20092;-69
2022/01/04 01:50:41;;;;;;;5.15;2.65;;;;;;;8.61;79.25;99993.25;5098204;28;20047;-69
2022/01/04 01:53:08;;;;;;;5.78;2.72;;;;;;;8.59;78.98;99986.34;5097630;28;20044;-68
2022/01/04 01:55:35;;;;;;;5.07;2.88;;;;;;;8.57;79.19;99980.28;5096914;28;20056;-69
2022/01/04 01:58:02;;;;;;;5.57;2.80;;;;;;;8.54;79.18;99981.25;5097142;28;20048;-69
2022/01/04 02:00:29;;;;;;;5.90;3.10;;;;;;;8.54;79.19;99976.00;5096778;28;20434;-68
2022/01/04 02:02:57;;;;;;;3.85;2.63;;;;;;;8.52;79.27;99977.81;5095813;28;20082;-68
2022/01/04 02:05:25;;;;;;;5.82;2.92;;;;;;;8.52;79.34;99975.19;5097817;28;20098;-68
2022/01/04 02:07:52;;;;;;;7.78;3.10;;;;;;;8.53;79.38;99979.53;5096593;28;20483;-68
2022/01/04 02:10:19;;;;;;;5.15;2.75;;;;;;;8.53;79.43;99972.53;5096819;28;20049;-68
2022/01/04 02:12:47;;;;;;;7.25;3.00;;;;;;;8.54;79.33;99969.00;5095664;28;20454;-68
2022/01/04 02:15:20;;;;;;;4.55;3.00;;;;;;;8.52;79.33;99968.19;5093709;28;20048;-68
2022/01/04 02:17:47;;;;;;;6.68;3.13;;;;;;;8.53;79.35;99969.03;5094432;28;20048;-68
2022/01/04 02:20:16;;;;;;;7.35;3.08;;;;;;;8.52;79.31;99960.31;5097078;28;20498;-68
2022/01/04 02:22:44;;;;;;;4.82;3.17;;;;;;;8.52;79.22;99956.81;5097613;28;20036;-68
2022/01/04 02:25:12;;;;;;;4.90;2.95;;;;;;;8.51;79.40;99945.47;5096657;28;20052;-70
2022/01/04 02:27:40;;;;;;;6.32;3.28;;;;;;;8.51;79.26;99941.94;5096562;28;20495;-68
2022/01/04 02:30:14;;;;;;;6.22;3.17;;;;;;;8.51;79.59;99941.94;5096497;28;20044;-68
2022/01/04 02:32:46;;;;;;;7.50;3.35;;;;;;;8.51;79.53;99927.06;5096402;28;20040;-69
2022/01/04 02:35:15;;;;;;;5.65;3.33;;;;;;;8.50;79.51;99925.34;5097048;28;20043;-68
2022/01/04 02:37:42;;;;;;;5.68;3.13;;;;;;;8.50;79.56;99922.72;5094363;28;20422;-68
2022/01/04 02:40:10;;;;;;;7.57;3.42;;;;;;;8.50;79.46;99924.47;5094378;28;20063;-70
2022/01/04 02:42:38;;;;;;;6.63;3.00;;;;;;;8.49;79.33;99918.38;5096670;28;20048;-68
2022/01/04 02:45:06;;;;;;;4.78;3.38;;;;;;;8.48;79.56;99924.53;5096385;28;20045;-67
2022/01/04 02:47:33;;;;;;;5.63;3.50;;;;;;;8.48;79.56;99914.03;5096498;28;20108;-67
2022/01/04 02:50:01;;;;;;;7.35;3.58;;;;;;;8.47;79.29;99925.44;5102562;28;20047;-69
2022/01/04 02:52:27;;;;;;;9.77;3.55;;;;;;;8.47;79.52;99920.19;5097202;28;20048;-69
2022/01/04 02:54:54;;;;;;;5.85;3.38;;;;;;;8.46;79.49;99928.13;5096350;28;20132;-69
2022/01/04 02:57:22;;;;;;;9.50;3.47;;;;;;;8.47;79.70;99914.06;5096546;28;20083;-68
2022/01/04 02:59:48;;;;;;;8.20;3.55;;;;;;;8.47;79.46;99912.31;5095223;28;20047;-69
2022/01/04 03:02:15;;;;;;;5.57;3.63;;;;;;;8.47;79.47;99898.31;5090635;28;20048;-69
2022/01/04 03:04:42;;;;;;;5.95;3.35;;;;;;;8.47;79.41;99909.69;5096313;28;20052;-69
2022/01/04 03:07:09;;;;;;;6.30;3.65;;;;;;;8.47;79.32;99914.94;5095454;28;20060;-69
2022/01/04 03:09:36;;;;;;;5.35;3.63;;;;;;;8.45;79.30;99903.59;5095332;28;20053;-68
2022/01/04 03:12:03;;;;;;;4.38;3.47;;;;;;;8.45;79.41;99894.88;5093658;28;20059;-68
2022/01/04 03:14:30;;;;;;;6.35;3.53;;;;;;;8.45;79.53;99893.09;5093878;28;20079;-68
2022/01/04 03:16:57;;;;;;;6.80;3.63;;;;;;;8.46;79.56;99886.94;5094712;28;20525;-71
2022/01/04 03:19:23;;;;;;;6.22;3.60;;;;;;;8.46;79.58;99881.66;5095840;28;20064;-71
2022/01/04 03:21:50;;;;;;;4.85;3.13;;;;;;;8.47;79.70;99879.91;5095760;28;20049;-69
2022/01/04 03:24:17;;;;;;;4.55;3.40;;;;;;;8.48;79.45;99884.28;5096014;28;20041;-69
2022/01/04 03:26:44;;;;;;;6.50;3.47;;;;;;;8.47;79.46;99872.03;5094836;28;20434;-69
2022/01/04 03:29:14;;;;;;;6.38;3.63;;;;;;;8.47;79.27;99861.53;5094102;28;20044;-68
2022/01/04 03:31:43;;;;;;;5.53;3.80;;;;;;;8.46;79.49;99850.16;5094910;28;20076;-69
2022/01/04 03:34:11;;;;;;;4.80;3.55;;;;;;;8.45;79.50;99843.19;5095123;28;20052;-68
2022/01/04 03:36:39;;;;;;;6.88;3.90;;;;;;;8.45;79.28;99840.56;5096170;28;20083;-69
2022/01/04 03:39:09;;;;;;;7.05;4.03;;;;;;;8.44;79.34;99841.50;5096312;28;20470;-68
2022/01/04 03:41:40;;;;;;;7.80;3.72;;;;;;;8.43;79.50;99828.41;5092378;28;20141;-68
2022/01/04 03:44:10;;;;;;;5.70;3.53;;;;;;;8.43;79.46;99828.41;5095431;28;20059;-69
2022/01/04 03:46:37;;;;;;;7.15;4.43;;;;;;;8.43;79.39;99813.53;5095357;28;20514;-67
2022/01/04 03:49:05;;;;;;;5.88;4.07;;;;;;;8.43;79.41;99812.66;5094962;28;20094;-68
2022/01/04 03:51:32;;;;;;;4.82;3.30;;;;;;;8.42;79.29;99803.94;5095424;28;20048;-69
2022/01/04 03:54:02;;;;;;;7.00;3.67;;;;;;;8.39;79.21;99793.53;5095580;28;20052;-69
2022/01/04 03:56:29;;;;;;;5.63;3.50;;;;;;;8.39;79.35;99786.50;5094202;28;20048;-70
2022/01/04 03:58:56;;;;;;;6.00;3.50;;;;;;;8.39;79.35;99783.84;5096060;28;20044;-69
2022/01/04 04:01:22;;;;;;;8.77;3.63;;;;;;;8.40;79.38;99785.56;5094879;28;20580;-70
2022/01/04 04:03:49;;;;;;;4.60;3.45;;;;;;;8.38;79.22;99778.69;5093367;28;20048;-70
2022/01/04 04:06:16;;;;;;;4.15;3.20;;;;;;;8.36;79.35;99775.25;5094691;28;20048;-69
2022/01/04 04:08:43;;;;;;;7.03;3.80;;;;;;;8.35;79.36;99766.53;5095128;28;20419;-69
2022/01/04 04:11:10;;;;;;;3.42;3.08;;;;;;;8.36;79.27;99764.75;5094311;28;20044;-66
2022/01/04 04:13:37;;;;;;;3.75;3.13;;;;;;;8.37;79.33;99761.22;5092936;28;20043;-68
2022/01/04 04:16:04;;;;;;;6.72;3.53;;;;;;;8.38;79.32;99749.78;5087980;28;20051;-68
2022/01/04 04:18:31;;;;;;;5.88;3.30;;;;;;;8.36;79.41;99747.22;5095007;28;20075;-70
2022/01/04 04:20:58;;;;;;;6.18;3.30;;;;;;;8.37;79.37;99741.06;5095758;28;20071;-69
2022/01/04 04:23:24;;;;;;;4.35;2.92;;;;;;;8.39;79.31;99739.22;5095567;28;20048;-69
2022/01/04 04:25:51;;;;;;;6.20;3.30;;;;;;;8.39;79.40;99738.38;5095234;28;20070;-70
2022/01/04 04:28:18;;;;;;;6.93;3.45;;;;;;;8.39;79.28;99739.22;5095785;28;20068;-70
2022/01/04 04:30:45;;;;;;;5.57;2.80;;;;;;;8.38;79.28;99728.78;5095704;28;20044;-70
2022/01/04 04:33:12;;;;;;;7.68;3.45;;;;;;;8.37;79.16;99725.31;5095576;28;20049;-71
2022/01/04 04:35:38;;;;;;;5.47;3.28;;;;;;;8.36;79.21;99725.34;5096427;28;20047;-69
2022/01/04 04:38:06;;;;;;;7.47;3.03;;;;;;;8.34;79.18;99729.84;5095726;28;20040;-70
2022/01/04 04:40:34;;;;;;;9.38;3.47;;;;;;;8.32;79.13;99724.63;5094789;28;20048;-70
2022/01/04 04:43:01;;;;;;;6.63;3.70;;;;;;;8.30;79.14;99729.06;5096748;28;20037;-69
2022/01/04 04:45:29;;;;;;;6.28;3.75;;;;;;;8.29;79.27;99723.88;5095885;28;20051;-71
2022/01/04 04:47:55;;;;;;;8.30;3.97;;;;;;;8.28;79.29;99716.91;5111089;28;20124;-71
2022/01/04 04:50:22;;;;;;;5.07;3.38;;;;;;;8.28;79.25;99715.16;5095056;28;20044;-70
2022/01/04 04:52:49;;;;;;;6.22;3.67;;;;;;;8.29;79.35;99708.13;5095117;27;20047;-69
2022/01/04 04:55:16;;;;;;;7.78;3.67;;;;;;;8.30;79.27;99720.34;5097596;28;20052;-70
2022/01/04 04:57:43;;;;;;;6.07;3.90;;;;;;;8.30;79.23;99720.34;5095405;28;20067;-70
2022/01/04 05:00:10;;;;;;;5.15;3.53;;;;;;;8.28;79.10;99716.91;5094603;28;20044;-69
2022/01/04 05:02:38;;;;;;;6.25;3.72;;;;;;;8.28;79.47;99728.28;5095326;28;20044;-71
2022/01/04 05:05:06;;;;;;;5.57;3.80;;;;;;;8.28;79.19;99717.78;5089486;28;20107;-71
2022/01/04 05:07:34;;;;;;;6.07;3.13;;;;;;;8.26;79.37;99722.25;5091955;28;20045;-71
2022/01/04 05:10:07;;;;;;;4.78;3.42;;;;;;;8.27;79.36;99726.59;5093981;28;20049;-68
2022/01/04 05:12:34;;;;;;;8.48;3.72;;;;;;;8.26;79.36;99724.88;5094446;28;20505;-70
2022/01/04 05:15:03;;;;;;;6.30;3.38;;;;;;;8.25;79.26;99720.53;5094242;28;20071;-69
2022/01/04 05:17:31;;;;;;;7.03;3.80;;;;;;;8.26;79.28;99713.50;5094655;28;20041;-69
2022/01/04 05:19:58;;;;;;;4.07;3.20;;;;;;;8.24;79.31;99703.06;5093877;28;20041;-70
2022/01/04 05:22:25;;;;;;;6.07;3.42;;;;;;;8.23;79.49;99707.47;5094085;28;20043;-70
2022/01/04 05:24:52;;;;;;;6.43;3.60;;;;;;;8.22;79.30;99720.63;5092872;28;20048;-69
2022/01/04 05:27:18;;;;;;;5.47;3.28;;;;;;;8.22;79.44;99703.13;5094132;28;20055;-68
2022/01/04 05:29:45;;;;;;;7.35;4.22;;;;;;;8.23;79.41;99693.47;5094119;28;20036;-69
2022/01/04 05:32:12;;;;;;;5.70;3.90;;;;;;;8.22;79.31;99689.13;5089876;28;20049;-68
2022/01/04 05:34:38;;;;;;;5.35;3.95;;;;;;;8.21;79.29;99692.66;5090101;28;20052;-69
2022/01/04 05:37:05;;;;;;;6.65;4.28;;;;;;;8.21;79.24;99690.03;5087235;28;20037;-69
2022/01/04 05:39:32;;;;;;;9.15;4.82;;;;;;;8.20;79.52;99690.94;5088662;28;20048;-67
2022/01/04 05:41:59;;;;;;;5.95;4.75;;;;;;;8.18;79.63;99682.31;5090749;28;20049;-67
2022/01/04 05:44:26;;;;;;;7.63;5.35;;;;;;;8.19;79.52;99679.63;5093665;28;20810;-68
2022/01/04 05:46:53;;;;;;;9.55;5.53;;;;;;;8.19;79.56;99666.47;5094220;28;20055;-66
2022/01/04 05:49:20;;;;;;;8.43;5.70;;;;;;;8.19;79.58;99657.75;5093902;28;20044;-68
2022/01/04 05:51:46;;;;;;;6.72;5.50;;;;;;;8.18;79.70;99653.44;5092604;28;20044;-68
2022/01/04 05:54:13;;;;;;;6.47;5.00;;;;;;;8.19;79.58;99647.25;5090907;28;20045;-69
2022/01/04 05:56:40;;;;;;;6.68;5.35;;;;;;;8.21;79.79;99650.66;5088288;28;20056;-69
2022/01/04 05:59:06;;;;;;;7.88;5.40;;;;;;;8.22;79.51;99652.38;5093399;28;20048;-70
2022/01/04 06:01:33;;;;;;;8.02;4.90;;;;;;;8.21;79.46;99648.91;5093882;28;20057;-72
2022/01/04 06:04:00;;;;;;;7.93;5.65;;;;;;;8.22;79.64;99647.13;5087673;28;20036;-67
2022/01/04 06:06:26;;;;;;;8.10;5.22;;;;;;;8.24;80.11;99648.75;5094127;28;20049;-70
2022/01/04 06:08:54;;;;;;;8.05;5.70;;;;;;;8.30;80.12;99658.16;5091111;28;20113;-69
2022/01/04 06:16:51;;;;;;;7.60;6.03;;;;;;;8.39;79.85;99654.34;5091764;28;20048;-69
2022/01/04 06:19:19;;;;;;;9.90;5.93;;;;;;;8.42;80.01;99654.22;5091949;28;20098;-71
2022/01/04 06:21:45;;;;;;;8.15;5.93;;;;;;;8.45;79.75;99643.56;5089418;28;20044;-66
2022/01/04 06:24:12;;;;;;;9.65;6.40;;;;;;;8.50;79.78;99640.78;5087274;28;20057;-70
2022/01/04 06:26:39;;;;;;;8.07;5.75;;;;;;;8.53;79.74;99638.03;5090995;28;20526;-67
2022/01/04 06:29:08;;;;;;;7.93;5.90;;;;;;;8.55;79.50;99642.31;5083791;28;20507;-66
2022/01/04 06:31:35;;;;;;;7.50;5.97;;;;;;;8.59;79.53;99635.19;5087536;28;20051;-66
2022/01/04 06:34:02;;;;;;;9.43;6.65;;;;;;;8.65;79.21;99632.28;5091670;28;20045;-66
2022/01/04 06:36:29;;;;;;;8.45;6.18;;;;;;;8.68;79.08;99636.56;5094813;28;20470;-68
2022/01/04 06:38:56;;;;;;;8.90;6.55;;;;;;;8.69;78.93;99626.00;5095226;28;20056;-67
2022/01/04 06:41:23;;;;;;;8.25;6.63;;;;;;;8.70;78.74;99622.41;5094777;28;20051;-67
2022/01/04 06:43:50;;;;;;;8.00;6.95;;;;;;;8.72;78.70;99634.66;5096091;28;20040;-69
2022/01/04 06:46:16;;;;;;;10.73;8.25;;;;;;;8.70;78.58;99650.47;5094181;28;20482;-67
2022/01/04 06:48:43;;;;;;;13.20;9.25;;;;;;;8.68;78.71;99637.41;5089915;28;20127;-68
2022/01/04 06:51:10;;;;;;;9.23;7.10;;;;;;;8.67;78.55;99632.22;5088293;28;20052;-68
2022/01/04 06:53:37;;;;;;;10.10;7.97;;;;;;;8.59;78.43;99616.78;5091082;28;20041;-68
2022/01/04 06:56:04;;;;;;;10.55;9.50;;;;;;;8.52;78.56;99613.56;5088457;28;20052;-67
2022/01/04 06:58:30;;;;;;;11.07;7.65;;;;;;;8.47;78.76;99618.13;5086712;28;20041;-66
2022/01/04 07:00:57;;;;;;;14.90;12.30;;;;;;;8.43;78.85;99623.53;5089799;28;20044;-66
2022/01/04 07:03:28;;;;;;;9.48;8.50;;;;;;;8.39;79.02;99605.28;5090705;28;21094;-67
2022/01/04 07:05:55;;;;;;;13.45;11.27;;;;;;;8.37;79.11;99599.25;5090598;28;20525;-67
2022/01/04 07:08:23;;;;;;;10.13;7.65;;;;;;;8.37;79.25;99601.00;5093806;28;20048;-68
2022/01/04 07:10:50;;;;;;;8.00;6.63;;;;;;;8.34;79.20;99599.38;5088486;28;20048;-65
2022/01/04 07:13:16;;;;;;;9.38;8.18;;;;;;;8.29;79.17;99601.31;5091259;28;20763;-67
2022/01/04 07:15:45;;;;;;;9.18;7.88;;;;;;;8.28;79.40;99604.88;5091052;28;20044;-68
2022/01/04 07:18:13;;;;;;;9.95;7.63;;;;;;;8.25;79.03;99599.75;5088520;28;20050;-69
2022/01/04 07:20:40;;;;;;;11.68;8.27;;;;;;;8.23;79.36;99593.69;5084876;28;20132;-70
2022/01/04 07:23:07;;;;;;;9.05;7.10;;;;;;;8.20;79.37;99588.56;5084751;28;20048;-67
2022/01/04 07:25:33;;;;;;;10.25;9.23;;;;;;;8.19;79.54;99582.47;5093846;28;20040;-68
2022/01/04 07:28:00;;;;;;;11.63;8.00;;;;;;;8.18;79.49;99586.00;5091166;28;20143;-69
2022/01/04 07:30:27;;;;;;;12.50;8.65;;;;;;;8.17;79.72;99583.47;5087073;28;20049;-70
2022/01/04 07:32:54;;;;;;;11.18;7.85;;;;;;;8.17;79.74;99580.84;5093490;28;20437;-68
2022/01/04 07:35:20;;;;;;;10.20;8.23;;;;;;;8.16;79.65;99584.38;5093663;28;20759;-69
2022/01/04 07:37:47;;;;;;;10.35;7.90;;;;;;;8.17;79.46;99586.09;5094517;28;20040;-68
2022/01/04 07:40:14;;;;;;;10.93;9.00;;;;;;;8.15;79.67;99580.88;5093676;28;20463;-67
2022/01/04 07:42:41;;;;;;;11.27;8.38;;;;;;;8.15;79.83;99574.78;5086304;28;20045;-67
2022/01/04 07:45:08;;;;;;;9.90;7.85;;;;;;;8.12;79.77;99569.66;5094207;28;20041;-69
2022/01/04 07:47:35;;;;;;;12.40;8.73;;;;;;;8.11;79.85;99560.06;5092609;28;21095;-68
2022/01/04 07:50:03;;;;;;;14.30;8.40;;;;;;;8.08;80.02;99561.91;5085811;28;20052;-70
2022/01/04 07:52:30;;;;;;;12.80;9.65;;;;;;;8.08;79.97;99561.91;5093680;28;20044;-68
2022/01/04 07:54:57;;;;;;;12.93;8.63;;;;;;;8.08;80.15;99550.53;5091671;28;20045;-67
2022/01/04 07:57:24;;;;;;;13.05;8.93;;;;;;;8.09;80.19;99552.25;5094040;28;20566;-67
2022/01/04 07:59:51;;;;;;;14.30;8.65;;;;;;;8.07;80.14;99549.72;5094285;28;20384;-65
2022/01/04 08:02:19;;;;;;;12.45;9.40;;;;;;;8.09;80.09;99554.88;5088237;28;20139;-71
2022/01/04 08:04:45;;;;;;;14.82;9.30;;;;;;;8.10;79.94;99561.84;5093638;28;20498;-65
2022/01/04 08:07:12;;;;;;;12.85;9.30;;;;;;;8.11;80.24;99574.06;5092330;28;20053;-65
2022/01/04 08:09:41;;;;;;;13.90;9.35;;;;;;;8.13;80.19;99576.59;5093431;28;20451;-69
2022/01/04 08:12:08;;;;;;;13.07;8.93;;;;;;;8.13;80.24;99585.34;5086053;28;20049;-70
2022/01/04 08:14:35;;;;;;;16.42;9.35;;;;;;;8.13;80.28;99573.97;5090621;28;20079;-68
2022/01/04 08:17:04;;;;;;;11.73;8.90;;;;;;;8.14;80.21;99565.19;5092914;28;20130;-65
2022/01/04 08:19:31;;;;;;;13.07;8.98;;;;;;;8.14;80.24;99565.19;5093115;28;20045;-66
2022/01/04 08:21:59;;;;;;;12.65;9.25;;;;;;;8.14;80.25;99558.16;5076620;28;20495;-71
2022/01/04 08:24:26;;;;;;;12.10;8.85;;;;;;;8.15;80.14;99562.50;5092493;28;20040;-66
2022/01/04 08:26:53;;;;;;;13.35;9.23;;;;;;;8.16;80.30;99558.13;5092418;28;20064;-71
2022/01/04 08:29:19;;;;;;;12.40;9.23;;;;;;;8.17;80.12;99559.81;5093319;28;20056;-66
2022/01/04 08:31:46;;;;;;;11.60;9.02;;;;;;;8.17;80.28;99567.69;5092636;28;20054;-67
2022/01/04 08:34:13;;;;;;;11.75;9.15;;;;;;;8.17;80.23;99567.69;5090462;28;20041;-66
2022/01/04 08:36:41;;;;;;;14.43;10.00;;;;;;;8.15;80.33;99567.75;5084767;28;20068;-68
2022/01/04 08:39:14;;;;;;;11.63;9.07;;;;;;;8.12;80.14;99565.28;5090580;28;20041;-67
2022/01/04 08:41:50;;;;;;;12.10;9.15;;;;;;;8.11;80.40;99563.56;5093696;28;20102;-68
2022/01/04 08:44:16;;;;;;;11.38;8.73;;;;;;;8.09;80.24;99568.00;5088887;28;20049;-68
2022/01/04 08:46:43;;;;;;;12.32;9.55;;;;;;;8.08;80.48;99566.28;5090070;28;20051;-68
2022/01/04 08:49:10;;;;;;;38.50;21.48;;;;;;;8.08;80.47;99575.03;5087088;28;20067;-67
2022/01/04 08:51:37;;;;;;;16.00;10.85;;;;;;;8.07;80.58;99581.19;5092482;28;20053;-66
2022/01/04 08:54:05;;;;;;;15.00;10.35;;;;;;;8.09;80.59;99581.13;5084905;28;20063;-67
2022/01/04 08:56:33;;;;;;;12.65;10.00;;;;;;;8.08;80.46;99588.16;5092299;28;20059;-67
2022/01/04 08:59:03;;;;;;;15.73;11.02;;;;;;;8.09;80.60;99587.22;5083457;28;20144;-67
2022/01/04 09:01:30;;;;;;;14.15;10.75;;;;;;;8.09;80.56;99592.47;5085268;28;20041;-66
2022/01/04 09:03:58;;;;;;;15.43;9.60;;;;;;;8.11;80.61;99591.56;5088334;28;21072;-66
2022/01/04 09:06:27;;;;;;;14.70;10.55;;;;;;;8.10;80.63;99593.34;5092267;28;20052;-67
2022/01/04 09:08:56;;;;;;;16.92;11.07;;;;;;;8.10;80.46;99595.97;5091103;28;20056;-66
2022/01/04 09:11:24;;;;;;;16.95;11.10;;;;;;;8.10;80.63;99595.97;5091311;28;20044;-68
2022/01/04 09:13:55;;;;;;;14.70;10.05;;;;;;;8.12;80.53;99594.13;5082488;28;20044;-67
2022/01/04 09:19:07;;;;;;;15.77;9.88;;;;;;;8.15;80.50;99580.88;5085229;28;20045;-66
2022/01/04 09:21:34;;;;;;;15.50;10.32;;;;;;;8.16;80.64;99582.59;5092748;28;20479;-67
2022/01/04 09:24:01;;;;;;;18.77;10.75;;;;;;;8.17;80.71;99578.22;5082278;28;20037;-67
2022/01/04 09:26:30;;;;;;;16.15;10.65;;;;;;;8.17;80.49;99584.28;5083910;28;20049;-67
2022/01/04 09:28:57;;;;;;;14.57;10.70;;;;;;;8.18;80.54;99580.75;5087581;28;20045;-68
2022/01/04 09:31:27;;;;;;;18.85;10.75;;;;;;;8.20;80.50;99570.19;5092330;28;20143;-67
2022/01/04 09:33:58;;;;;;;14.45;10.18;;;;;;;8.23;80.51;99580.56;5092325;28;20407;-69
2022/01/04 09:36:37;;;;;;;17.15;10.27;;;;;;;8.26;80.28;99577.81;5082597;28;20809;-67
2022/01/04 09:39:13;;;;;;;18.70;11.65;;;;;;;8.27;80.54;99587.41;5087249;28;20146;-65
2022/01/04 09:41:41;;;;;;;16.85;10.98;;;;;;;8.28;80.48;99594.38;5087924;28;20093;-65
2022/01/04 09:44:10;;;;;;;20.30;11.80;;;;;;;8.27;80.44;99602.28;5080448;28;20044;-66
2022/01/04 09:46:39;;;;;;;22.10;11.52;;;;;;;8.29;80.49;99601.31;5090512;28;20445;-66
2022/01/04 09:49:11;;;;;;;39.40;27.48;;;;;;;8.31;80.32;99601.28;5084377;28;20440;-66
2022/01/04 09:51:42;;;;;;;19.55;11.80;;;;;;;8.32;80.56;99597.72;5086656;28;20048;-67
2022/01/04 09:54:09;;;;;;;26.38;20.20;;;;;;;8.32;80.38;99589.84;5078841;28;20055;-67
2022/01/04 09:56:35;;;;;;;22.23;14.02;;;;;;;8.31;80.21;99594.22;5081554;28;20071;-67
2022/01/04 09:59:03;;;;;;;20.40;13.27;;;;;;;8.30;80.25;99591.69;5087463;28;20553;-66
2022/01/04 10:01:37;;;;;;;22.40;13.02;;;;;;;8.30;80.69;99584.66;5082117;28;20045;-69
2022/01/04 10:04:24;;;;;;;21.88;12.73;;;;;;;8.29;80.41;99588.19;5079959;28;20139;-69
2022/01/04 10:07:05;;;;;;;22.40;12.13;;;;;;;8.31;80.30;99588.16;5081025;28;20041;-71
2022/01/04 10:09:38;;;;;;;21.30;12.85;;;;;;;8.28;80.60;99577.75;5084081;28;20056;-70
2022/01/04 10:12:06;;;;;;;22.67;12.73;;;;;;;8.28;80.58;99588.25;5088434;28;20079;-67
2022/01/04 10:14:43;;;;;;;22.42;13.25;;;;;;;8.29;80.60;99596.06;5087009;28;20044;-68
2022/01/04 10:17:14;;;;;;;20.95;13.73;;;;;;;8.29;80.70;99579.47;5088186;28;20048;-66
2022/01/04 10:19:51;;;;;;;23.75;14.02;;;;;;;8.32;80.56;99581.97;5085724;28;20523;-67
2022/01/04 10:22:32;;;;;;;22.25;13.60;;;;;;;8.34;80.56;99582.78;5089513;28;20098;-69
2022/01/04 10:25:00;;;;;;;22.85;13.93;;;;;;;8.33;80.64;99579.28;5081979;28;20053;-67
2022/01/04 10:27:33;;;;;;;24.08;14.88;;;;;;;8.40;80.23;99538.69;5087842;28;20047;-65
2022/01/04 10:30:30;;;;;;;25.27;14.63;;;;;;;8.49;80.26;99534.88;5085908;28;20152;-67
2022/01/04 10:33:00;;;;;;;26.58;14.63;;;;;;;8.54;80.18;99530.28;5086811;28;20147;-70
2022/01/04 10:35:35;;;;;;;24.10;15.18;;;;;;;8.57;80.12;99534.56;5088432;28;20037;-66
2022/01/04 10:38:26;;;;;;;26.27;14.23;;;;;;;8.55;80.12;99534.59;5085160;28;20056;-68
2022/01/04 10:41:07;;;;;;;25.20;15.00;;;;;;;8.58;80.04;99540.66;5086405;28;20049;-66
2022/01/04 10:43:56;;;;;;;27.10;15.30;;;;;;;8.58;80.09;99541.53;5093206;28;20127;-65
2022/01/04 10:46:45;;;;;;;24.92;16.30;;;;;;;8.59;80.22;99550.25;5090715;28;20067;-65
2022/01/04 10:49:19;;;;;;;27.15;16.15;;;;;;;8.58;80.17;99544.16;5091613;28;20100;-65
2022/01/04 10:52:08;;;;;;;28.02;16.05;;;;;;;8.55;80.07;99531.97;5089074;28;20093;-67
2022/01/04 10:54:34;;;;;;;25.55;16.70;;;;;;;8.57;80.27;99533.69;5089644;28;20041;-65
2022/01/04 10:57:08;;;;;;;26.40;15.82;;;;;;;8.59;80.23;99537.97;5089247;28;20053;-67
2022/01/04 10:59:35;;;;;;;29.48;17.95;;;;;;;8.58;80.30;99543.28;5068996;28;86226;-66
2022/01/04 11:02:04;;;;;;;26.83;15.65;;;;;;;8.58;80.46;99548.53;5084241;28;20706;-70
2022/01/04 11:04:31;;;;;;;26.83;16.92;;;;;;;8.55;80.41;99529.34;5080391;28;20502;-67
2022/01/04 11:07:02;;;;;;;29.88;16.35;;;;;;;8.57;80.48;99539.81;5094753;28;20045;-68
2022/01/04 11:09:30;;;;;;;29.30;17.23;;;;;;;8.59;80.63;99534.47;5090371;28;20049;-66
2022/01/04 11:11:57;;;;;;;28.90;16.50;;;;;;;8.60;80.61;99542.28;5088242;28;20044;-66
2022/01/04 11:14:25;;;;;;;33.00;18.27;;;;;;;8.61;80.60;99541.38;5084564;28;20483;-64
2022/01/04 11:16:52;;;;;;;28.02;17.13;;;;;;;8.65;80.53;99536.84;5092949;28;20044;-66
2022/01/04 11:19:20;;;;;;;29.67;18.20;;;;;;;8.68;80.07;99549.84;5085454;28;20041;-65
2022/01/04 11:21:49;;;;;;;30.40;16.88;;;;;;;8.70;80.17;99545.38;5092402;28;20052;-68
2022/01/04 11:24:16;;;;;;;31.45;17.17;;;;;;;8.67;80.22;99542.88;5089866;28;20136;-67
2022/01/04 11:26:47;;;;;;;29.35;17.80;;;;;;;8.69;80.34;99546.31;5085380;28;20796;-66
2022/01/04 11:29:16;;;;;;;33.35;16.45;;;;;;;8.70;80.44;99537.50;5084984;28;20045;-67
2022/01/04 11:32:16;;;;;;;28.63;16.88;;;;;;;8.70;80.03;99546.22;5085412;28;20052;-67
2022/01/04 11:35:16;;;;;;;30.67;17.98;;;;;;;8.70;79.68;99542.75;5093700;28;20037;-67
2022/01/04 11:37:58;;;;;;;27.35;17.35;;;;;;;8.67;80.11;99549.00;5090054;28;20049;-68
2022/01/04 11:40:40;;;;;;;29.40;16.85;;;;;;;8.64;80.22;99554.38;5087427;28;20096;-70
2022/01/04 11:43:36;;;;;;;27.40;17.50;;;;;;;8.63;80.10;99543.94;5084471;28;20049;-66
2022/01/04 11:46:03;;;;;;;29.52;17.42;;;;;;;8.61;80.33;99541.38;5083571;28;20100;-67
2022/01/04 11:48:35;;;;;;;30.15;18.40;;;;;;;8.62;80.31;99544.88;5082683;28;20054;-66
2022/01/04 11:51:09;;;;;;;31.88;16.52;;;;;;;8.63;80.38;99543.94;5086820;28;20483;-68
2022/01/04 11:53:37;;;;;;;29.15;18.95;;;;;;;8.61;80.50;99540.53;5085341;28;20051;-69